Decoded Metar for ETNL (LAAGE in GERMANY) (IATA:RLG) | Meteo·Mobile Aviation Weather
aviador You're here:

ETNL Decoded Metar

LAAGE in GERMANY
Report Time2018-08-19 04:20:00
UTC Time2018-08-19 05:27:02
Flight Rules Old
Wind220° at 02 kt
W.Decomp.*RWY 28: 0.9 kt HW 1.8 kt LCW
W.Rank220° ranks 6
Current wind is below 220° avg. (6.3)
Visibility9999 m
Phenomena:N/A
Clouds:Few 150 Hf
Broken 380 Hf
Expected CloudBase > 800 ft AGL from Temp-Dew spread
Ceiling38,000 ft
Temp14°C (ISA -1)
Dew Point12°C (88% RH)
AAT13.9°C
QNH1020 hPa
Density Alt-7 ft
Elevation131 ft
Report Wrong Elevation
Raw Report
METAR ETNL 190420Z 22002KT 9999 FEW150 BKN380 14/12 Q1020 BLU+=

Extra information for ETNL:More info

Metar Taf Metar & Taf Last 4 Metars F.Rules Stats Wind Profile Meteogram Temp Stats Airport Information Weather charts Add Link Nearby VenuesMetar ALERT Operation Metar Decoded Social comments